Terminal Aerodrome Forecast
Issued by NWS

Home | Current Version | Previous Version | Graphics & Text | Print | Product List | Glossary On
Versions: 1 2 3 4 5 6 7 8 9 10 11 12 13 14 15 16 17
000
FTUS43 KMPX 182200 AAA
TAFAXN
TAF AMD
KAXN 182233Z 1823/1918 22013KT 4SM -SN OVC023
      TEMPO 1823/1901 P6SM SCT023 OVC040
     FM190100 20010KT P6SM SCT020 OVC035
     FM190300 22008KT 2SM -SN OVC015
     FM190600 30019G30KT 6SM -SN BLSN OVC028
     FM191300 31016G25KT P6SM OVC020=

USA.gov is the U.S. government's official web portal to all federal, state and local government web resources and services.